Airfield :
LOGIN :

Register | Disclaimer

   EN    FR    IT 

 










Legend :    VFR   Marginal VFR   IFR   Intensive IFR   Very Intensive IFR
Visi :
Ceiling :
>= 8 km
>= 3000ft
5 to 8 km
1000 to 3000 ft
1500m to 5 km
500 to 1000 ft
800 to 1500m
200 to 500 ft
< 800m
< 200 ft
Symbols :   Thunderstorms  Fog  Heavy snow  Heavy precipitations  Wind > 20 kt
SIGMETs :     Misc.  Thunderstorms  Icing  Turbulence  Mountain Waves  Volcanic Ashes






- Airport Elevation : 574 ft
- IATA code : TEQ


LTBU - Corlu

CURRENT METAR :
  • 200850Z 02021G31KT 9999 FEW025 BKN080 04/M02 Q1035 RMK RWY22 02020KT

EXPIRED METARs :
  • 200820Z 02021KT 9999 FEW025 BKN080 04/M02 Q1034 RMK RWY22 01020G30KT
  • 200750Z 02021G31KT 9999 FEW025 BKN080 03/M02 Q1034 RMK RWY22 01020KT
  • 200720Z 02021KT 9999 FEW025 BKN080 03/M02 Q1033 RMK RWY22 01020KT
  • 200650Z 01021KT 9999 FEW025 BKN080 03/M02 Q1033 RMK RWY22 01022KT
  • 200620Z 02020KT 9999 FEW025 BKN080 02/M01 Q1032 RMK RWY22 02020KT
  • 200550Z 01021G32KT 9999 FEW025 BKN080 02/M01 Q1032 RMK RWY22 01020KT

TAF TAF LTBU
Valid from the 20 at 06:00 until the 21 at 06:00 UTC


200440Z 2006/2106 36018G28KT 9999 SCT015 BKN025
TEMPO 2006/2010 -RA
PROB30
TEMPO 2012/2015 -RA
BECMG 2015/2018 36015KT



MET'MAP, your aeronautical weather chart ! - Copyright ORBIFLY December 2007 - Disclaimer

ORBIFLY MET'MAP TEAM :

Programming & Development : Alexandra Zaïnal
Concept & original design : Baudouin d'Aumeries
Assistance for programming : Marc-Olivier Méhu
Technical & hardware support : Manuel Goepfert

Contact : metmap@orbifly.com




SOURCES & CREDITS :

   NOAA